Vendome Street — A8YI6 — position and weather

sailwx.info

Track history (hours):
 
Tides and Currents Weather Stations Pressure Air Temp Water Temp Dewpoint Dewpoint Depression Visibility Wind Speed Wind Dir Waves Ship Positions

Vendome Street

Last reported at 2015-Feb-13 02:10 UTC. Time now 2015-Mar-04 00:11 UTC.
Position N 39°30' W 072°42'.
Warning: this ship's position is 18 days out of date.

Length 177 m; draft 8.5 m.

Type: Tanker. MMSI: 636015064.

Date/timePositionNaut miles runAvg speedWind from/ knotsBaromVisibWave heightAir tempDewpointWater temp
2015-Feb-13 02:10N 39°30' W 072°42'1910.9
2015-Feb-13 00:25N 39°44' W 072°59'58 5.6
2015-Feb-12 14:08N 40°29' W 073°47'6 8.5
2015-Feb-12 13:29N 40°29' W 073°54'1010.5
2015-Feb-12 12:34N 40°36' W 074°03'2 1.6
2015-Feb-12 11:33N 40°38' W 074°04'0 0.0
2015-Feb-12 10:33N 40°38' W 074°04'0 0.1
2015-Feb-12 09:30N 40°38' W 074°04'0 0.1
2015-Feb-12 08:30N 40°38' W 074°04'0 0.0
2015-Feb-12 07:30N 40°38' W 074°04'2 1.8
2015-Feb-12 06:33N 40°39' W 074°06'5 5.5
2015-Feb-12 05:33N 40°36' W 074°12'0 0.0
2015-Feb-10 17:18N 40°36' W 074°12'3 4.1
2015-Feb-10 16:32N 40°39' W 074°10'5 5.2
2015-Feb-10 15:33N 40°38' W 074°03'0 0.4
2015-Feb-10 14:29N 40°38' W 074°04'0 0.0
2015-Feb-10 13:29N 40°38' W 074°04'0 0.0
2015-Feb-10 12:29N 40°38' W 074°04'0 0.0
2015-Feb-10 11:29N 40°38' W 074°04'0 0.0
2015-Feb-10 10:29N 40°38' W 074°04'0 0.0
2015-Feb-10 09:29N 40°38' W 074°04'0 0.0
2015-Feb-10 08:29N 40°38' W 074°04'0 0.0
2015-Feb-10 07:32N 40°38' W 074°04'0 0.2
2015-Feb-10 06:29N 40°38' W 074°04'0 0.0
2015-Feb-10 05:29N 40°38' W 074°04'0 0.0
2015-Feb-10 04:23N 40°38' W 074°04'0 0.0
2015-Feb-10 03:29N 40°38' W 074°04'0 0.2
2015-Feb-10 02:33N 40°38' W 074°04'2 2.1
2015-Feb-10 01:33N 40°36' W 074°03'10 9.6
2015-Feb-10 00:33N 40°29' W 073°54'10 9.4
2015-Feb-09 23:31N 40°24' W 073°43'1212.4
2015-Feb-09 22:33N 40°17' W 073°30'1110.8
2015-Feb-09 21:33N 40°10' W 073°19'8 7.9
2015-Feb-09 20:31N 40°05' W 073°11'9 7.8
2015-Feb-09 19:24N 40°02' W 073°00'7 8.2
2015-Feb-09 18:33N 39°58' W 072°53'5 5.4
2015-Feb-09 17:33N 39°55' W 072°47'5 5.4
2015-Feb-09 16:33N 39°52' W 072°41'8 7.7
2015-Feb-09 15:33N 39°47' W 072°33'4 4.2
2015-Feb-09 14:33N 39°45' W 072°29'1110.7
2015-Feb-09 13:33N 39°37' W 072°19'1311.3
2015-Feb-09 12:23N 39°26' W 072°11'911.0
2015-Feb-09 11:32N 39°17' W 072°05'1111.1
2015-Feb-09 10:33N 39°08' W 071°58'1111.3
2015-Feb-09 09:33N 38°58' W 071°52'3511.4
2015-Feb-09 06:29N 38°24' W 071°38'  
Track history (hours):
 
Tides and Currents Weather Stations Pressure Air Temp Water Temp Dewpoint Dewpoint Depression Visibility Wind Speed Wind Dir Waves Ship Positions

Vendome Street

Last reported at 2015-Feb-13 02:10 UTC. Time now 2015-Mar-04 00:11 UTC.
Position N 39°30' W 072°42'.
Warning: this ship's position is 18 days out of date.

Length 177 m; draft 8.5 m.

Type: Tanker. MMSI: 636015064.

Date/timePositionNaut miles runAvg speedWind from/ knotsBaromVisibWave heightAir tempDewpointWater temp
2015-Feb-13 02:10N 39°30' W 072°42'1910.9
2015-Feb-13 00:25N 39°44' W 072°59'58 5.6
2015-Feb-12 14:08N 40°29' W 073°47'6 8.5
2015-Feb-12 13:29N 40°29' W 073°54'1010.5
2015-Feb-12 12:34N 40°36' W 074°03'2 1.6
2015-Feb-12 11:33N 40°38' W 074°04'0 0.0
2015-Feb-12 10:33N 40°38' W 074°04'0 0.1
2015-Feb-12 09:30N 40°38' W 074°04'0 0.1
2015-Feb-12 08:30N 40°38' W 074°04'0 0.0
2015-Feb-12 07:30N 40°38' W 074°04'2 1.8
2015-Feb-12 06:33N 40°39' W 074°06'5 5.5
2015-Feb-12 05:33N 40°36' W 074°12'0 0.0
2015-Feb-10 17:18N 40°36' W 074°12'3 4.1
2015-Feb-10 16:32N 40°39' W 074°10'5 5.2
2015-Feb-10 15:33N 40°38' W 074°03'0 0.4
2015-Feb-10 14:29N 40°38' W 074°04'0 0.0
2015-Feb-10 13:29N 40°38' W 074°04'0 0.0
2015-Feb-10 12:29N 40°38' W 074°04'0 0.0
2015-Feb-10 11:29N 40°38' W 074°04'0 0.0
2015-Feb-10 10:29N 40°38' W 074°04'0 0.0
2015-Feb-10 09:29N 40°38' W 074°04'0 0.0
2015-Feb-10 08:29N 40°38' W 074°04'0 0.0
2015-Feb-10 07:32N 40°38' W 074°04'0 0.2
2015-Feb-10 06:29N 40°38' W 074°04'0 0.0
2015-Feb-10 05:29N 40°38' W 074°04'0 0.0
2015-Feb-10 04:23N 40°38' W 074°04'0 0.0
2015-Feb-10 03:29N 40°38' W 074°04'0 0.2
2015-Feb-10 02:33N 40°38' W 074°04'2 2.1
2015-Feb-10 01:33N 40°36' W 074°03'10 9.6
2015-Feb-10 00:33N 40°29' W 073°54'10 9.4
2015-Feb-09 23:31N 40°24' W 073°43'1212.4
2015-Feb-09 22:33N 40°17' W 073°30'1110.8
2015-Feb-09 21:33N 40°10' W 073°19'8 7.9
2015-Feb-09 20:31N 40°05' W 073°11'9 7.8
2015-Feb-09 19:24N 40°02' W 073°00'7 8.2
2015-Feb-09 18:33N 39°58' W 072°53'5 5.4
2015-Feb-09 17:33N 39°55' W 072°47'5 5.4
2015-Feb-09 16:33N 39°52' W 072°41'8 7.7
2015-Feb-09 15:33N 39°47' W 072°33'4 4.2
2015-Feb-09 14:33N 39°45' W 072°29'1110.7
2015-Feb-09 13:33N 39°37' W 072°19'1311.3
2015-Feb-09 12:23N 39°26' W 072°11'911.0
2015-Feb-09 11:32N 39°17' W 072°05'1111.1
2015-Feb-09 10:33N 39°08' W 071°58'1111.3
2015-Feb-09 09:33N 38°58' W 071°52'3511.4
2015-Feb-09 06:29N 38°24' W 071°38'  

Dump ship's entire track history